LAN321 SEQM-MDPC
Flight info
| Callsign | LAN321 |
|---|---|
| Flight time | N/A |
| Altitude | 36000 |
| Route | ARNOK3A ARNOK UP533 BOKAN UP778 RNG/N0405F230 W3 BIVIG/N0456F360 UW3 MGN/N0404F230 W4 STA/N0454F370 DCT SELAN UM525 VESKA VESKA2B |
| Aircraft | A319/M-SDE2E3FGHIJ1RWXY/L |
Departure
| Time | 2026-05-05 21:56 |
|---|---|
| Airport | Mariscal Sucre International Airport (SEQM) |
Arrival
| Time | N/A |
|---|---|
| Airport | Punta Cana International Airport (MDPC) |
| Time | Latitude | Longitude | Altitude | Speed | Heading |
|---|---|---|---|---|---|
| 2026-05-05 21:19 | -0.12637 | -78.35715 | 7838 ft | 0 kts | 266° |
| 2026-05-05 21:31 | -0.12637 | -78.35714 | 7844 ft | 0 kts | 266° |
| 2026-05-05 21:47 | -0.12634 | -78.35694 | 7844 ft | 4 kts | 255° |
| 2026-05-05 21:47 | -0.12622 | -78.35672 | 7850 ft | 4 kts | 211° |
| 2026-05-05 21:47 | -0.12607 | -78.35668 | 7850 ft | 1 kts | 177° |
| 2026-05-05 21:48 | -0.12604 | -78.35668 | 7850 ft | 0 kts | 177° |
| 2026-05-05 21:51 | -0.12616 | -78.35667 | 7851 ft | 5 kts | 176° |
| 2026-05-05 21:51 | -0.12670 | -78.35662 | 7853 ft | 6 kts | 163° |
| 2026-05-05 21:52 | -0.12693 | -78.35624 | 7859 ft | 8 kts | 110° |
| 2026-05-05 21:52 | -0.12707 | -78.35589 | 7862 ft | 0 kts | 132° |
| 2026-05-05 21:52 | -0.12717 | -78.35589 | 7863 ft | 5 kts | 178° |
| 2026-05-05 21:53 | -0.12795 | -78.35590 | 7866 ft | 18 kts | 181° |
| 2026-05-05 21:53 | -0.12973 | -78.35592 | 7871 ft | 32 kts | 176° |
| 2026-05-05 21:53 | -0.13157 | -78.35578 | 7881 ft | 27 kts | 177° |
| 2026-05-05 21:53 | -0.13392 | -78.35568 | 7885 ft | 41 kts | 184° |
| 2026-05-05 21:54 | -0.13645 | -78.35562 | 7893 ft | 34 kts | 169° |
| 2026-05-05 21:54 | -0.13904 | -78.35554 | 7898 ft | 34 kts | 172° |
| 2026-05-05 21:54 | -0.14085 | -78.35546 | 7909 ft | 29 kts | 183° |
| 2026-05-05 21:54 | -0.14242 | -78.35491 | 7917 ft | 23 kts | 111° |
| 2026-05-05 21:55 | -0.14223 | -78.35363 | 7912 ft | 2 kts | 19° |
| 2026-05-05 21:55 | -0.14204 | -78.35367 | 7911 ft | 3 kts | 349° |
| 2026-05-05 21:55 | -0.14110 | -78.35382 | 7907 ft | 38 kts | 355° |
| 2026-05-05 21:55 | -0.13663 | -78.35394 | 7892 ft | 88 kts | 359° |
| 2026-05-05 21:56 | -0.12902 | -78.35423 | 7872 ft | 134 kts | 356° |
| 2026-05-05 21:56 | -0.11814 | -78.35470 | 7827 ft | 178 kts | 358° |
| 2026-05-05 21:56 | -0.10473 | -78.35538 | 8099 ft | 200 kts | 2° |
| 2026-05-05 21:56 | -0.09066 | -78.35530 | 8694 ft | 205 kts | 1° |
| 2026-05-05 21:57 | -0.07625 | -78.35569 | 9326 ft | 209 kts | 357° |
| 2026-05-05 21:57 | -0.06168 | -78.35778 | 9764 ft | 224 kts | 346° |
| 2026-05-05 21:57 | -0.04592 | -78.36355 | 9783 ft | 256 kts | 339° |
| 2026-05-05 21:57 | -0.02842 | -78.37089 | 9843 ft | 287 kts | 338° |
| 2026-05-05 21:58 | -0.00960 | -78.37884 | 10455 ft | 300 kts | 338° |
| 2026-05-05 21:58 | 0.01033 | -78.38703 | 10843 ft | 320 kts | 339° |
| 2026-05-05 21:58 | 0.03178 | -78.39513 | 11200 ft | 339 kts | 340° |
| 2026-05-05 21:58 | 0.05461 | -78.40336 | 11569 ft | 357 kts | 341° |
| 2026-05-05 21:59 | 0.07850 | -78.41175 | 12025 ft | 372 kts | 342° |
| 2026-05-05 21:59 | 0.10341 | -78.42035 | 12663 ft | 380 kts | 342° |
| 2026-05-05 21:59 | 0.12888 | -78.42680 | 13501 ft | 381 kts | 357° |
| 2026-05-05 21:59 | 0.15524 | -78.42470 | 14166 ft | 381 kts | 17° |
| 2026-05-05 22:00 | 0.17918 | -78.41371 | 14719 ft | 381 kts | 37° |
| 2026-05-05 22:00 | 0.19946 | -78.39679 | 15435 ft | 380 kts | 44° |
| 2026-05-05 22:00 | 0.21869 | -78.37860 | 16065 ft | 382 kts | 46° |
| 2026-05-05 22:00 | 0.23133 | -78.36625 | 16416 ft | 387 kts | 46° |
| 2026-05-05 22:01 | 0.25045 | -78.34733 | 17168 ft | 387 kts | 46° |
| 2026-05-05 22:01 | 0.26966 | -78.32825 | 17793 ft | 391 kts | 46° |
| 2026-05-05 22:01 | 0.28917 | -78.30904 | 18439 ft | 395 kts | 46° |
| 2026-05-05 22:01 | 0.30886 | -78.28987 | 19130 ft | 391 kts | 45° |
| 2026-05-05 22:02 | 0.32847 | -78.27091 | 19759 ft | 394 kts | 45° |
| 2026-05-05 22:02 | 0.34830 | -78.25194 | 20287 ft | 397 kts | 45° |
| 2026-05-05 22:02 | 0.36843 | -78.23282 | 20821 ft | 400 kts | 44° |
| 2026-05-05 22:02 | 0.38879 | -78.21365 | 21377 ft | 402 kts | 44° |
| 2026-05-05 22:03 | 0.40902 | -78.19473 | 21923 ft | 404 kts | 44° |
| 2026-05-05 22:03 | 0.42989 | -78.17522 | 22359 ft | 409 kts | 44° |
| 2026-05-05 22:03 | 0.45057 | -78.15594 | 22808 ft | 412 kts | 44° |
| 2026-05-05 22:03 | 0.47162 | -78.13647 | 23296 ft | 416 kts | 43° |
| 2026-05-05 22:04 | 0.49379 | -78.11762 | 23739 ft | 419 kts | 40° |
| 2026-05-05 22:04 | 0.51665 | -78.09935 | 24112 ft | 423 kts | 39° |
| 2026-05-05 22:04 | 0.53991 | -78.08131 | 24479 ft | 424 kts | 39° |
| 2026-05-05 22:04 | 0.56346 | -78.06337 | 24901 ft | 427 kts | 38° |
| 2026-05-05 22:05 | 0.58729 | -78.04543 | 25258 ft | 429 kts | 38° |
| 2026-05-05 22:05 | 0.61126 | -78.02752 | 25574 ft | 432 kts | 38° |
| 2026-05-05 22:05 | 0.63536 | -78.00950 | 25957 ft | 433 kts | 38° |
| 2026-05-05 22:05 | 0.65962 | -77.99145 | 26293 ft | 437 kts | 38° |
| 2026-05-05 22:06 | 0.68409 | -77.97325 | 26684 ft | 438 kts | 38° |
| 2026-05-05 22:06 | 0.70864 | -77.95497 | 26995 ft | 442 kts | 38° |
| 2026-05-05 22:06 | 0.73332 | -77.93662 | 27461 ft | 441 kts | 38° |
| 2026-05-05 22:06 | 0.75793 | -77.91825 | 27687 ft | 446 kts | 38° |
| 2026-05-05 22:07 | 0.78301 | -77.89984 | 28037 ft | 448 kts | 36° |
| 2026-05-05 22:07 | 0.80922 | -77.88287 | 28341 ft | 452 kts | 33° |
| 2026-05-05 22:07 | 0.83616 | -77.86658 | 28733 ft | 453 kts | 32° |
| 2026-05-05 22:07 | 0.86343 | -77.85053 | 29028 ft | 456 kts | 32° |
| 2026-05-05 22:08 | 0.89086 | -77.83462 | 29361 ft | 458 kts | 32° |
| 2026-05-05 22:08 | 0.91857 | -77.81868 | 29665 ft | 459 kts | 31° |
| 2026-05-05 22:08 | 0.94630 | -77.80280 | 30368 ft | 458 kts | 31° |
| 2026-05-05 22:08 | 0.97361 | -77.78721 | 30759 ft | 457 kts | 31° |
| 2026-05-05 22:09 | 1.00112 | -77.77154 | 31154 ft | 455 kts | 31° |
| 2026-05-05 22:09 | 1.02867 | -77.75586 | 31516 ft | 455 kts | 31° |
| 2026-05-05 22:09 | 1.05615 | -77.74022 | 31863 ft | 453 kts | 31° |
| 2026-05-05 22:09 | 1.08359 | -77.72460 | 32172 ft | 453 kts | 31° |
| 2026-05-05 22:10 | 1.11099 | -77.70901 | 32500 ft | 452 kts | 31° |
| 2026-05-05 22:10 | 1.13827 | -77.69347 | 32760 ft | 453 kts | 31° |
| 2026-05-05 22:10 | 1.16578 | -77.67780 | 32994 ft | 455 kts | 31° |
| 2026-05-05 22:10 | 1.19330 | -77.66215 | 33330 ft | 454 kts | 31° |
| 2026-05-05 22:11 | 1.22076 | -77.64654 | 33641 ft | 453 kts | 31° |
| 2026-05-05 22:11 | 1.24807 | -77.63103 | 33983 ft | 452 kts | 31° |
| 2026-05-05 22:11 | 1.27542 | -77.61549 | 34293 ft | 451 kts | 31° |
| 2026-05-05 22:11 | 1.30274 | -77.59996 | 34574 ft | 451 kts | 30° |
| 2026-05-05 22:12 | 1.32997 | -77.58449 | 34856 ft | 451 kts | 31° |
| 2026-05-05 22:12 | 1.35728 | -77.56900 | 35129 ft | 450 kts | 31° |
| 2026-05-05 22:12 | 1.38455 | -77.55346 | 35373 ft | 451 kts | 31° |
| 2026-05-05 22:12 | 1.41173 | -77.53793 | 35557 ft | 451 kts | 30° |
| 2026-05-05 22:13 | 1.43902 | -77.52242 | 35796 ft | 450 kts | 30° |
| 2026-05-05 22:13 | 1.46605 | -77.50712 | 35943 ft | 443 kts | 30° |
| 2026-05-05 22:13 | 1.49285 | -77.49190 | 35958 ft | 443 kts | 30° |
| 2026-05-05 22:14 | 1.54684 | -77.46125 | 36005 ft | 450 kts | 30° |
| 2026-05-05 22:14 | 1.60136 | -77.43033 | 36013 ft | 453 kts | 30° |
| 2026-05-05 22:15 | 1.65600 | -77.39931 | 36009 ft | 450 kts | 30° |
| 2026-05-05 22:15 | 1.71032 | -77.36839 | 36013 ft | 450 kts | 30° |
| 2026-05-05 22:16 | 1.76494 | -77.33740 | 36008 ft | 450 kts | 30° |
| 2026-05-05 22:16 | 1.81938 | -77.30645 | 36002 ft | 450 kts | 30° |
| 2026-05-05 22:17 | 1.87389 | -77.27555 | 36005 ft | 450 kts | 30° |
| 2026-05-05 22:17 | 1.92853 | -77.24443 | 36009 ft | 454 kts | 30° |
| 2026-05-05 22:18 | 1.98325 | -77.21330 | 36019 ft | 455 kts | 30° |
| 2026-05-05 22:18 | 2.03836 | -77.18193 | 36030 ft | 455 kts | 30° |
| 2026-05-05 22:19 | 2.09346 | -77.15066 | 36051 ft | 455 kts | 30° |
| 2026-05-05 22:19 | 2.14852 | -77.11939 | 36042 ft | 454 kts | 30° |
| 2026-05-05 22:20 | 2.20345 | -77.08814 | 36040 ft | 455 kts | 30° |
| 2026-05-05 22:20 | 2.25819 | -77.05706 | 36058 ft | 455 kts | 31° |
| 2026-05-05 22:21 | 2.31333 | -77.02577 | 36065 ft | 455 kts | 30° |
| 2026-05-05 22:21 | 2.36838 | -76.99451 | 36064 ft | 455 kts | 30° |
| 2026-05-05 22:22 | 2.42351 | -76.96312 | 36068 ft | 456 kts | 30° |
| 2026-05-05 22:22 | 2.47863 | -76.93173 | 36080 ft | 455 kts | 30° |
| 2026-05-05 22:23 | 2.53362 | -76.90042 | 36080 ft | 455 kts | 31° |
| 2026-05-05 22:23 | 2.58874 | -76.86904 | 36090 ft | 455 kts | 30° |
| 2026-05-05 22:24 | 2.64372 | -76.83776 | 36079 ft | 455 kts | 30° |
| 2026-05-05 22:24 | 2.69848 | -76.80661 | 36071 ft | 456 kts | 30° |
| 2026-05-05 22:25 | 2.75360 | -76.77520 | 36085 ft | 456 kts | 30° |
| 2026-05-05 22:25 | 2.80874 | -76.74381 | 36080 ft | 455 kts | 30° |
| 2026-05-05 22:26 | 2.86378 | -76.71248 | 36069 ft | 455 kts | 30° |
| 2026-05-05 22:26 | 2.91882 | -76.68115 | 36072 ft | 456 kts | 30° |
| 2026-05-05 22:27 | 2.97401 | -76.64972 | 36054 ft | 456 kts | 30° |
| 2026-05-05 22:27 | 3.02899 | -76.61845 | 36050 ft | 454 kts | 30° |
| 2026-05-05 22:28 | 3.08367 | -76.58743 | 36056 ft | 455 kts | 31° |
| 2026-05-05 22:28 | 3.13873 | -76.55609 | 36036 ft | 455 kts | 31° |
| 2026-05-05 22:29 | 3.19371 | -76.52474 | 36042 ft | 455 kts | 31° |
| 2026-05-05 22:29 | 3.24870 | -76.49325 | 36049 ft | 455 kts | 30° |
| 2026-05-05 22:30 | 3.30359 | -76.46190 | 36035 ft | 454 kts | 30° |
| 2026-05-05 22:30 | 3.35849 | -76.43060 | 36038 ft | 454 kts | 30° |
| 2026-05-05 22:31 | 3.41542 | -76.40337 | 36028 ft | 455 kts | 23° |
| 2026-05-05 22:31 | 3.47394 | -76.37973 | 36025 ft | 456 kts | 22° |
| 2026-05-05 22:32 | 3.53299 | -76.35673 | 35969 ft | 455 kts | 22° |
| 2026-05-05 22:32 | 3.59200 | -76.33399 | 35968 ft | 454 kts | 22° |
| 2026-05-05 22:33 | 3.65113 | -76.31129 | 35977 ft | 455 kts | 22° |
| 2026-05-05 22:33 | 3.71042 | -76.28858 | 35989 ft | 456 kts | 21° |
| 2026-05-05 22:34 | 3.76967 | -76.26590 | 36009 ft | 456 kts | 22° |
| 2026-05-05 22:34 | 3.82858 | -76.24333 | 36036 ft | 456 kts | 21° |
| 2026-05-05 22:35 | 3.88816 | -76.22055 | 36029 ft | 456 kts | 21° |
| 2026-05-05 22:35 | 3.94749 | -76.19787 | 36077 ft | 456 kts | 21° |
| 2026-05-05 22:36 | 4.00637 | -76.17535 | 36046 ft | 456 kts | 21° |
| 2026-05-05 22:36 | 4.06570 | -76.15267 | 36047 ft | 455 kts | 21° |
| 2026-05-05 22:37 | 4.12489 | -76.13003 | 36038 ft | 455 kts | 22° |
| 2026-05-05 22:37 | 4.18389 | -76.10748 | 36011 ft | 454 kts | 21° |
| 2026-05-05 22:38 | 4.24296 | -76.08494 | 36022 ft | 454 kts | 22° |
| 2026-05-05 22:38 | 4.30199 | -76.06231 | 35997 ft | 455 kts | 22° |
| 2026-05-05 22:39 | 4.36111 | -76.03973 | 35993 ft | 454 kts | 22° |
| 2026-05-05 22:39 | 4.41979 | -76.01727 | 35996 ft | 454 kts | 21° |
| 2026-05-05 22:40 | 4.47882 | -75.99456 | 35963 ft | 456 kts | 21° |
| 2026-05-05 22:40 | 4.53849 | -75.97174 | 35950 ft | 459 kts | 21° |
| 2026-05-05 22:41 | 4.59806 | -75.94897 | 35939 ft | 457 kts | 21° |
| 2026-05-05 22:41 | 4.65732 | -75.92629 | 35989 ft | 456 kts | 21° |
| 2026-05-05 22:42 | 4.71677 | -75.90353 | 36006 ft | 458 kts | 21° |
| 2026-05-05 22:42 | 4.77638 | -75.88069 | 36007 ft | 458 kts | 21° |
| 2026-05-05 22:43 | 4.83580 | -75.85792 | 36009 ft | 457 kts | 21° |
| 2026-05-05 22:43 | 4.89504 | -75.83524 | 36007 ft | 460 kts | 21° |
| 2026-05-05 22:44 | 4.95483 | -75.81238 | 35960 ft | 460 kts | 21° |
| 2026-05-05 22:44 | 5.01448 | -75.78950 | 36004 ft | 458 kts | 21° |
| 2026-05-05 22:45 | 5.07400 | -75.76674 | 36036 ft | 455 kts | 22° |
| 2026-05-05 22:45 | 5.13300 | -75.74409 | 36046 ft | 454 kts | 22° |
| 2026-05-05 22:46 | 5.19225 | -75.72133 | 36038 ft | 456 kts | 22° |
| 2026-05-05 22:46 | 5.25173 | -75.69849 | 36015 ft | 457 kts | 22° |
| 2026-05-05 22:47 | 5.31075 | -75.67583 | 35976 ft | 456 kts | 21° |
| 2026-05-05 22:47 | 5.37006 | -75.65307 | 35961 ft | 456 kts | 22° |
| 2026-05-05 22:48 | 5.42933 | -75.63031 | 35980 ft | 456 kts | 22° |
| 2026-05-05 22:48 | 5.47867 | -75.61137 | 35970 ft | 456 kts | 22° |
| 2026-05-05 22:49 | 5.53806 | -75.58857 | 35974 ft | 456 kts | 22° |
| 2026-05-05 22:49 | 5.59742 | -75.56593 | 35971 ft | 455 kts | 21° |
| 2026-05-05 22:50 | 5.65661 | -75.54316 | 35956 ft | 455 kts | 22° |
| 2026-05-05 22:50 | 5.71575 | -75.52042 | 35957 ft | 455 kts | 22° |
| 2026-05-05 22:51 | 5.77486 | -75.49758 | 35961 ft | 456 kts | 22° |
| 2026-05-05 22:51 | 5.83404 | -75.47476 | 36011 ft | 455 kts | 22° |
| 2026-05-05 22:52 | 5.89333 | -75.45194 | 36067 ft | 456 kts | 22° |
| 2026-05-05 22:52 | 5.95240 | -75.42901 | 36142 ft | 455 kts | 23° |
| 2026-05-05 22:53 | 6.01034 | -75.40344 | 36200 ft | 456 kts | 25° |
| 2026-05-05 22:53 | 6.06758 | -75.37660 | 36249 ft | 457 kts | 26° |
| 2026-05-05 22:54 | 6.12479 | -75.34905 | 36264 ft | 456 kts | 26° |
| 2026-05-05 22:54 | 6.18434 | -75.32776 | 36251 ft | 457 kts | 13° |
| 2026-05-05 22:55 | 6.24678 | -75.31562 | 36227 ft | 458 kts | 11° |
| 2026-05-05 22:55 | 6.30974 | -75.30498 | 36173 ft | 459 kts | 10° |
| 2026-05-05 22:55 | 6.34143 | -75.29985 | 36012 ft | 459 kts | 10° |
| 2026-05-05 22:56 | 6.37293 | -75.29486 | 36012 ft | 459 kts | 9° |
| 2026-05-05 22:56 | 6.43571 | -75.28503 | 36013 ft | 460 kts | 9° |
| 2026-05-05 22:57 | 6.49984 | -75.27509 | 36011 ft | 472 kts | 9° |
| 2026-05-05 22:57 | 6.56564 | -75.26495 | 36012 ft | 485 kts | 9° |
| 2026-05-05 22:58 | 6.63291 | -75.25459 | 36015 ft | 491 kts | 9° |
| 2026-05-05 22:58 | 6.70015 | -75.24429 | 36012 ft | 485 kts | 8° |
| 2026-05-05 22:59 | 6.76656 | -75.23413 | 36001 ft | 482 kts | 9° |
| 2026-05-05 22:59 | 6.83302 | -75.22394 | 36005 ft | 485 kts | 9° |
| 2026-05-05 23:00 | 6.93313 | -75.20860 | 35963 ft | 484 kts | 9° |
| 2026-05-05 23:00 | 6.99970 | -75.19835 | 35963 ft | 483 kts | 9° |
| 2026-05-05 23:01 | 7.06579 | -75.18832 | 35945 ft | 485 kts | 9° |
| 2026-05-05 23:01 | 7.13252 | -75.17827 | 35946 ft | 485 kts | 8° |
| 2026-05-05 23:02 | 7.19914 | -75.16820 | 35939 ft | 484 kts | 9° |
| 2026-05-05 23:02 | 7.26573 | -75.15811 | 35944 ft | 484 kts | 9° |
| 2026-05-05 23:03 | 7.33245 | -75.14802 | 35947 ft | 485 kts | 9° |
| 2026-05-05 23:03 | 7.39902 | -75.13788 | 35917 ft | 482 kts | 8° |
| 2026-05-05 23:04 | 7.46525 | -75.12782 | 35923 ft | 481 kts | 8° |
| 2026-05-05 23:04 | 7.53169 | -75.11781 | 35905 ft | 483 kts | 9° |
| 2026-05-05 23:05 | 7.59819 | -75.10769 | 35898 ft | 483 kts | 9° |
| 2026-05-05 23:05 | 7.66431 | -75.09760 | 35883 ft | 482 kts | 9° |
| 2026-05-05 23:06 | 7.73056 | -75.08749 | 35893 ft | 482 kts | 9° |
| 2026-05-05 23:06 | 7.79740 | -75.07726 | 35883 ft | 483 kts | 9° |
| 2026-05-05 23:07 | 7.86346 | -75.06713 | 35884 ft | 482 kts | 9° |
| 2026-05-05 23:07 | 7.92968 | -75.05693 | 35865 ft | 480 kts | 9° |
| 2026-05-05 23:08 | 7.99571 | -75.04676 | 35870 ft | 479 kts | 9° |
| 2026-05-05 23:08 | 8.06175 | -75.03659 | 35876 ft | 480 kts | 9° |
| 2026-05-05 23:09 | 8.12793 | -75.02639 | 35875 ft | 480 kts | 9° |
| 2026-05-05 23:09 | 8.19392 | -75.01621 | 35873 ft | 479 kts | 9° |
| 2026-05-05 23:10 | 8.25936 | -75.00612 | 35872 ft | 479 kts | 9° |
| 2026-05-05 23:10 | 8.32544 | -74.99592 | 35871 ft | 480 kts | 9° |
| 2026-05-05 23:11 | 8.39151 | -74.98573 | 35858 ft | 480 kts | 9° |
| 2026-05-05 23:11 | 8.45752 | -74.97550 | 35859 ft | 479 kts | 9° |
| 2026-05-05 23:12 | 8.52353 | -74.96528 | 35853 ft | 480 kts | 9° |
| 2026-05-05 23:12 | 8.58954 | -74.95508 | 35855 ft | 480 kts | 9° |
| 2026-05-05 23:13 | 8.65565 | -74.94486 | 35851 ft | 480 kts | 9° |
| 2026-05-05 23:13 | 8.72126 | -74.93472 | 35861 ft | 480 kts | 9° |
| 2026-05-05 23:14 | 8.78734 | -74.92450 | 35853 ft | 480 kts | 8° |
| 2026-05-05 23:14 | 8.85316 | -74.91425 | 35854 ft | 477 kts | 8° |
| 2026-05-05 23:15 | 8.91878 | -74.90409 | 35860 ft | 478 kts | 8° |
| 2026-05-05 23:15 | 8.98454 | -74.89392 | 35859 ft | 479 kts | 8° |
| 2026-05-05 23:16 | 9.05044 | -74.88372 | 35847 ft | 478 kts | 8° |
| 2026-05-05 23:16 | 9.11615 | -74.87354 | 35850 ft | 478 kts | 8° |
| 2026-05-05 23:17 | 9.18203 | -74.86326 | 35851 ft | 480 kts | 8° |
| 2026-05-05 23:17 | 9.24822 | -74.85296 | 35842 ft | 481 kts | 9° |
| 2026-05-05 23:18 | 9.31289 | -74.83602 | 35854 ft | 480 kts | 17° |
| 2026-05-05 23:18 | 9.37598 | -74.81481 | 35860 ft | 481 kts | 19° |
| 2026-05-05 23:19 | 9.43910 | -74.79216 | 35860 ft | 480 kts | 19° |
| 2026-05-05 23:19 | 9.50203 | -74.76912 | 35849 ft | 480 kts | 20° |
| 2026-05-05 23:20 | 9.56511 | -74.74611 | 35851 ft | 484 kts | 19° |
| 2026-05-05 23:20 | 9.62857 | -74.72299 | 35853 ft | 484 kts | 19° |
| 2026-05-05 23:21 | 9.69171 | -74.69999 | 35859 ft | 481 kts | 19° |
| 2026-05-05 23:21 | 9.75444 | -74.67714 | 35859 ft | 482 kts | 19° |
| 2026-05-05 23:22 | 9.81766 | -74.65412 | 35856 ft | 483 kts | 19° |
| 2026-05-05 23:22 | 9.88085 | -74.63108 | 35859 ft | 483 kts | 19° |
| 2026-05-05 23:23 | 9.94426 | -74.60798 | 35850 ft | 485 kts | 19° |
| 2026-05-05 23:23 | 10.00771 | -74.58488 | 35855 ft | 484 kts | 19° |
| 2026-05-05 23:24 | 10.07116 | -74.56179 | 35855 ft | 483 kts | 19° |
| 2026-05-05 23:24 | 10.13453 | -74.53870 | 35856 ft | 484 kts | 19° |
| 2026-05-05 23:25 | 10.19792 | -74.51558 | 35857 ft | 485 kts | 19° |
| 2026-05-05 23:25 | 10.26138 | -74.49236 | 35866 ft | 484 kts | 19° |
| 2026-05-05 23:26 | 10.32462 | -74.46926 | 35868 ft | 483 kts | 19° |
| 2026-05-05 23:26 | 10.38792 | -74.44617 | 35871 ft | 484 kts | 19° |
| 2026-05-05 23:27 | 10.45101 | -74.42313 | 35869 ft | 484 kts | 19° |
| 2026-05-05 23:27 | 10.51432 | -74.39999 | 35861 ft | 483 kts | 19° |
| 2026-05-05 23:28 | 10.57763 | -74.37681 | 35858 ft | 483 kts | 19° |
| 2026-05-05 23:28 | 10.64105 | -74.35357 | 35869 ft | 484 kts | 19° |
| 2026-05-05 23:29 | 10.70437 | -74.33047 | 35866 ft | 483 kts | 19° |
| 2026-05-05 23:29 | 10.76755 | -74.30764 | 35875 ft | 482 kts | 18° |
| 2026-05-05 23:30 | 10.82035 | -74.28914 | 35870 ft | 483 kts | 18° |
| 2026-05-05 23:30 | 10.89464 | -74.26369 | 35852 ft | 484 kts | 17° |
| 2026-05-05 23:31 | 10.95854 | -74.24233 | 35837 ft | 483 kts | 16° |
| 2026-05-05 23:31 | 11.02288 | -74.22216 | 35837 ft | 483 kts | 16° |
| 2026-05-05 23:32 | 11.08730 | -74.20228 | 35837 ft | 484 kts | 16° |
| 2026-05-05 23:32 | 11.15183 | -74.18243 | 35829 ft | 483 kts | 16° |
| 2026-05-05 23:33 | 11.21612 | -74.16268 | 35828 ft | 483 kts | 15° |
| 2026-05-05 23:33 | 11.28011 | -74.14292 | 35915 ft | 484 kts | 15° |
| 2026-05-05 23:34 | 11.34477 | -74.12299 | 35906 ft | 487 kts | 15° |
| 2026-05-05 23:34 | 11.40953 | -74.10304 | 35891 ft | 485 kts | 16° |
| 2026-05-05 23:35 | 11.47409 | -74.08325 | 35885 ft | 485 kts | 15° |
| 2026-05-05 23:35 | 11.53873 | -74.06331 | 35892 ft | 486 kts | 15° |
| 2026-05-05 23:36 | 11.60341 | -74.04341 | 35884 ft | 486 kts | 14° |
| 2026-05-05 23:36 | 11.66807 | -74.02348 | 35900 ft | 487 kts | 14° |
| 2026-05-05 23:37 | 11.73296 | -74.00348 | 35892 ft | 487 kts | 15° |
| 2026-05-05 23:37 | 11.79779 | -73.98346 | 35895 ft | 487 kts | 15° |
| 2026-05-05 23:38 | 11.85219 | -73.96671 | 35893 ft | 487 kts | 15° |
| 2026-05-05 23:38 | 11.91717 | -73.94661 | 35897 ft | 487 kts | 14° |
| 2026-05-05 23:39 | 11.98166 | -73.92661 | 35890 ft | 486 kts | 15° |
| 2026-05-05 23:39 | 12.04635 | -73.90655 | 35903 ft | 486 kts | 13° |
| 2026-05-05 23:40 | 12.11119 | -73.88645 | 35894 ft | 487 kts | 14° |
| 2026-05-05 23:40 | 12.17608 | -73.86672 | 35898 ft | 486 kts | 15° |
| 2026-05-05 23:41 | 12.24075 | -73.84665 | 35896 ft | 486 kts | 13° |
| 2026-05-05 23:41 | 12.30528 | -73.82657 | 36073 ft | 487 kts | 16° |
| 2026-05-05 23:42 | 12.33765 | -73.81648 | 36371 ft | 485 kts | 15° |
| 2026-05-05 23:42 | 12.36989 | -73.80637 | 36644 ft | 484 kts | 14° |
| 2026-05-05 23:42 | 12.40199 | -73.79632 | 36896 ft | 483 kts | 13° |
| 2026-05-05 23:42 | 12.43414 | -73.78624 | 37152 ft | 482 kts | 14° |
| 2026-05-05 23:43 | 12.46628 | -73.77631 | 37407 ft | 481 kts | 15° |
| 2026-05-05 23:43 | 12.49837 | -73.76633 | 37632 ft | 481 kts | 15° |
| 2026-05-05 23:43 | 12.53039 | -73.75641 | 37795 ft | 479 kts | 13° |
| 2026-05-05 23:43 | 12.56231 | -73.74661 | 37860 ft | 478 kts | 14° |
| 2026-05-05 23:44 | 12.62609 | -73.72692 | 37898 ft | 480 kts | 14° |
| 2026-05-05 23:44 | 12.68977 | -73.70725 | 37908 ft | 480 kts | 15° |
| 2026-05-05 23:45 | 12.75356 | -73.68731 | 37915 ft | 477 kts | 13° |
| 2026-05-05 23:45 | 12.81708 | -73.66748 | 37912 ft | 478 kts | 14° |
| 2026-05-05 23:46 | 12.88081 | -73.64734 | 37880 ft | 480 kts | 14° |
| 2026-05-05 23:46 | 12.91277 | -73.63736 | 37665 ft | 479 kts | 14° |
| 2026-05-05 23:46 | 12.94467 | -73.62742 | 37006 ft | 478 kts | 13° |
| 2026-05-05 23:47 | 12.97644 | -73.61752 | 36473 ft | 487 kts | 14° |
| 2026-05-05 23:47 | 13.00940 | -73.60741 | 36167 ft | 488 kts | 13° |
| 2026-05-05 23:47 | 13.04144 | -73.59749 | 36030 ft | 482 kts | 14° |
| 2026-05-05 23:47 | 13.07327 | -73.58748 | 35965 ft | 478 kts | 14° |
| 2026-05-05 23:48 | 13.13693 | -73.56768 | 35926 ft | 480 kts | 14° |
| 2026-05-05 23:48 | 13.20129 | -73.54764 | 35928 ft | 485 kts | 14° |
| 2026-05-05 23:49 | 13.26581 | -73.52737 | 35932 ft | 483 kts | 14° |
| 2026-05-05 23:49 | 13.32991 | -73.50730 | 35939 ft | 482 kts | 13° |
| 2026-05-05 23:50 | 13.39387 | -73.48726 | 35935 ft | 484 kts | 14° |
| 2026-05-05 23:50 | 13.45834 | -73.46705 | 35938 ft | 484 kts | 14° |
| 2026-05-05 23:51 | 13.52303 | -73.44679 | 35941 ft | 482 kts | 14° |
| 2026-05-05 23:51 | 13.58690 | -73.42670 | 35941 ft | 483 kts | 13° |
| 2026-05-05 23:52 | 13.65174 | -73.40641 | 35948 ft | 484 kts | 14° |
| 2026-05-05 23:52 | 13.71594 | -73.38633 | 35947 ft | 485 kts | 14° |
| 2026-05-05 23:53 | 13.78054 | -73.36601 | 35949 ft | 486 kts | 14° |
| 2026-05-05 23:53 | 13.84504 | -73.34565 | 35944 ft | 485 kts | 15° |
| 2026-05-05 23:54 | 13.87603 | -73.33161 | 35926 ft | 491 kts | 30° |
| 2026-05-05 23:54 | 13.90277 | -73.30948 | 35920 ft | 496 kts | 42° |
| 2026-05-05 23:54 | 13.94945 | -73.25693 | 35953 ft | 498 kts | 46° |
| 2026-05-05 23:55 | 13.99445 | -73.20272 | 35954 ft | 498 kts | 47° |
| 2026-05-05 23:55 | 14.03921 | -73.14808 | 35954 ft | 498 kts | 47° |
| 2026-05-05 23:56 | 14.08393 | -73.09341 | 35963 ft | 498 kts | 47° |
| 2026-05-05 23:56 | 14.12844 | -73.03920 | 35962 ft | 498 kts | 47° |
| 2026-05-05 23:57 | 14.17323 | -72.98474 | 35961 ft | 498 kts | 47° |
| 2026-05-05 23:57 | 14.21813 | -72.93020 | 35962 ft | 498 kts | 48° |
| 2026-05-05 23:58 | 14.26298 | -72.87576 | 35966 ft | 498 kts | 47° |
| 2026-05-05 23:58 | 14.30793 | -72.82136 | 35966 ft | 499 kts | 47° |
| 2026-05-05 23:59 | 14.35293 | -72.76683 | 35968 ft | 499 kts | 47° |
| 2026-05-05 23:59 | 14.39794 | -72.71232 | 35964 ft | 499 kts | 47° |
| 2026-05-06 00:00 | 14.44322 | -72.65792 | 35969 ft | 499 kts | 47° |
| 2026-05-06 00:00 | 14.48853 | -72.60364 | 35970 ft | 499 kts | 47° |
| 2026-05-06 00:01 | 14.53360 | -72.54965 | 35968 ft | 499 kts | 47° |
| 2026-05-06 00:01 | 14.57844 | -72.49499 | 35976 ft | 499 kts | 47° |
| 2026-05-06 00:02 | 14.62311 | -72.43999 | 35979 ft | 499 kts | 47° |
| 2026-05-06 00:02 | 14.66787 | -72.38511 | 35974 ft | 500 kts | 48° |
| 2026-05-06 00:03 | 14.71269 | -72.33023 | 35978 ft | 500 kts | 48° |
| 2026-05-06 00:03 | 14.75761 | -72.27522 | 35978 ft | 500 kts | 47° |
| 2026-05-06 00:04 | 14.80242 | -72.22033 | 35979 ft | 500 kts | 47° |
| 2026-05-06 00:04 | 14.84730 | -72.16530 | 35979 ft | 500 kts | 47° |
| 2026-05-06 00:05 | 14.91424 | -72.08318 | 35981 ft | 500 kts | 47° |
| 2026-05-06 00:06 | 14.95912 | -72.02806 | 35989 ft | 501 kts | 47° |
| 2026-05-06 00:06 | 15.00418 | -71.97270 | 35986 ft | 501 kts | 47° |
| 2026-05-06 00:07 | 15.04898 | -71.91759 | 35987 ft | 500 kts | 47° |
| 2026-05-06 00:07 | 15.09353 | -71.86281 | 35987 ft | 501 kts | 48° |
| 2026-05-06 00:08 | 15.13847 | -71.80747 | 35990 ft | 502 kts | 48° |
| 2026-05-06 00:08 | 15.18335 | -71.75216 | 35991 ft | 501 kts | 48° |
| 2026-05-06 00:09 | 15.22817 | -71.69686 | 36001 ft | 500 kts | 48° |
| 2026-05-06 00:09 | 15.27293 | -71.64156 | 35995 ft | 502 kts | 47° |
| 2026-05-06 00:10 | 15.31792 | -71.58598 | 35995 ft | 503 kts | 47° |
| 2026-05-06 00:10 | 15.36283 | -71.53049 | 35996 ft | 501 kts | 48° |
| 2026-05-06 00:11 | 15.40736 | -71.47542 | 35996 ft | 503 kts | 48° |
| 2026-05-06 00:11 | 15.45235 | -71.41971 | 36000 ft | 504 kts | 48° |
| 2026-05-06 00:12 | 15.49716 | -71.36413 | 35998 ft | 502 kts | 48° |
| 2026-05-06 00:12 | 15.54220 | -71.30873 | 36007 ft | 502 kts | 47° |
| 2026-05-06 00:13 | 15.58774 | -71.25374 | 36004 ft | 503 kts | 47° |
| 2026-05-06 00:13 | 15.63360 | -71.19872 | 36000 ft | 503 kts | 46° |
| 2026-05-06 00:14 | 15.67929 | -71.14392 | 36005 ft | 502 kts | 46° |
| 2026-05-06 00:14 | 15.70184 | -71.11683 | 36002 ft | 484 kts | 46° |
| 2026-05-06 00:14 | 15.72324 | -71.09097 | 35999 ft | 462 kts | 47° |
| 2026-05-06 00:14 | 15.74362 | -71.06610 | 35999 ft | 441 kts | 47° |
| 2026-05-06 00:15 | 15.76300 | -71.04230 | 35999 ft | 421 kts | 47° |
| 2026-05-06 00:15 | 15.78120 | -71.01987 | 36004 ft | 401 kts | 47° |
| 2026-05-06 00:15 | 15.79873 | -70.99823 | 36005 ft | 381 kts | 47° |
| 2026-05-06 00:15 | 15.81525 | -70.97779 | 36004 ft | 359 kts | 46° |
| 2026-05-06 00:16 | 15.83082 | -70.95852 | 35930 ft | 339 kts | 46° |
| 2026-05-06 00:16 | 15.84588 | -70.93988 | 35394 ft | 342 kts | 46° |
| 2026-05-06 00:16 | 15.86174 | -70.92042 | 34577 ft | 361 kts | 46° |
| 2026-05-06 00:16 | 15.87866 | -70.89996 | 33093 ft | 388 kts | 46° |
| 2026-05-06 00:17 | 15.89692 | -70.87770 | 31757 ft | 414 kts | 47° |
| 2026-05-06 00:17 | 15.90348 | -70.86967 | 31255 ft | 421 kts | 47° |
| 2026-05-06 00:17 | 15.90586 | -70.86676 | 31064 ft | 423 kts | 47° |
| 2026-05-06 00:17 | 15.92105 | -70.84815 | 29977 ft | 443 kts | 47° |
| 2026-05-06 00:18 | 15.93606 | -70.82966 | 28756 ft | 452 kts | 48° |
| 2026-05-06 00:18 | 15.93761 | -70.82774 | 28615 ft | 454 kts | 47° |
| 2026-05-06 00:20 | 15.94382 | -70.82009 | 28092 ft | 460 kts | 47° |
| 2026-05-06 00:20 | 15.96478 | -70.79409 | 26493 ft | 474 kts | 47° |
| 2026-05-06 00:21 | 15.97063 | -70.78682 | 26017 ft | 476 kts | 48° |
| 2026-05-06 00:22 | 15.97733 | -70.77871 | 25464 ft | 481 kts | 46° |
| 2026-05-06 00:23 | 16.00180 | -70.75409 | 23920 ft | 502 kts | 39° |